»·PEaware :: N925NG KLAX-KSAN

N925NG :: KLAX-KSAN

FLIGHT INFORMATION

Flight Status: Arrived
Operator: Privately registered:
United States
More flights under this callsign
Pilot: Nuno G. (17304)
Aircraft: PIPER PA-28 CHEROKEE ARCHER
(PA28)
More flights by this aircraft type
Origin: KLAX Los Angeles Intl
United States
Destination: KSAN San Diego Intl-Lindbergh
United States
More flights between these airports :: More routes between these airports
Route:
File this flight plan on PilotEdge
Remarks: CAT11
Altitude:
(Current/Filed)
9,500ft
Speed:
(Current/Filed)
125kts
Departed: 03-Dec-17 09:07 AM
Arrived: 03-Dec-17 10:24 AM
Distance/Time
Traveled:
95nm/1:17
Distance/Time
To Go:
Arrived

Flight Plot

Page will automatically refresh every two minutes.


Map Options




Map Legend


Flown Route
Filed Route
Departure Airport
Arrival Airport
Navaid (VOR, NDB)
Fix

Horizontal Profiles

Position Reports

Time Latitude Longitude Heading Altitude Ground
Speed
03-Dec-17 08:57 33.933538 -118.396955 287 106ft 0kts
03-Dec-17 08:58 33.933538 -118.396955 287 106ft 0kts
03-Dec-17 08:59 33.933538 -118.396955 287 106ft 0kts
03-Dec-17 09:00 33.933538 -118.396955 287 106ft 0kts
03-Dec-17 09:01 33.933538 -118.396955 287 106ft 0kts
03-Dec-17 09:02 33.933538 -118.396955 287 106ft 0kts
03-Dec-17 09:03 33.933538 -118.396955 287 106ft 0kts
03-Dec-17 09:04 33.934016 -118.398060 313 106ft 5kts
03-Dec-17 09:05 33.934946 -118.394287 82 106ft 14kts
03-Dec-17 09:06 33.935623 -118.387640 82 106ft 22kts
03-Dec-17 09:07 33.936516 -118.382770 7 106ft 0kts
03-Dec-17 09:08 33.936516 -118.382770 7 106ft 0kts
03-Dec-17 09:09 33.936516 -118.382770 7 106ft 0kts
03-Dec-17 09:10 33.936516 -118.382770 7 106ft 0kts
03-Dec-17 09:11 33.937207 -118.382882 314 106ft 17kts
03-Dec-17 09:12 33.935848 -118.396585 263 405ft 87kts
03-Dec-17 09:13 33.933535 -118.422582 264 1686ft 77kts
03-Dec-17 09:14 33.931512 -118.452089 266 3020ft 114kts
03-Dec-17 09:15 33.928742 -118.496909 266 2951ft 139kts
03-Dec-17 09:16 33.925817 -118.543330 266 2951ft 139kts
03-Dec-17 09:17 33.922786 -118.589870 266 2951ft 138kts
03-Dec-17 09:18 33.918361 -118.635686 239 2943ft 139kts
03-Dec-17 09:19 33.886700 -118.638520 169 3944ft 103kts
03-Dec-17 09:20 33.855813 -118.632558 169 5019ft 111kts
03-Dec-17 09:21 33.824230 -118.626392 169 5985ft 116kts
03-Dec-17 09:22 33.791989 -118.620019 169 6904ft 118kts
03-Dec-17 09:23 33.758644 -118.613333 169 7485ft 136kts
03-Dec-17 09:24 33.719688 -118.605310 169 7462ft 145kts
03-Dec-17 09:25 33.680470 -118.597101 169 7461ft 140kts
03-Dec-17 09:26 33.642330 -118.589035 169 7461ft 139kts
03-Dec-17 09:27 33.604526 -118.580964 169 7461ft 139kts
03-Dec-17 09:28 33.570989 -118.563280 128 7461ft 136kts
03-Dec-17 09:29 33.545129 -118.527601 130 6822ft 150kts
03-Dec-17 09:30 33.518627 -118.490942 130 5813ft 145kts
03-Dec-17 09:31 33.493434 -118.455999 130 5482ft 131kts
03-Dec-17 09:32 33.468511 -118.424457 134 5482ft 130kts
03-Dec-17 09:33 33.442901 -118.393708 133 5482ft 130kts
03-Dec-17 09:34 33.417513 -118.363125 133 5482ft 130kts
03-Dec-17 09:35 33.407501 -118.328580 66 3658ft 122kts
03-Dec-17 09:36 33.417186 -118.289108 78 3502ft 136kts
03-Dec-17 09:37 33.417525 -118.243973 108 3500ft 140kts
03-Dec-17 09:38 33.402422 -118.201216 125 3568ft 136kts
03-Dec-17 09:39 33.381119 -118.167491 126 4276ft 128kts
03-Dec-17 09:40 33.359670 -118.133623 126 4863ft 128kts
03-Dec-17 09:41 33.338141 -118.099496 125 5386ft 129kts
03-Dec-17 09:42 33.323312 -118.060386 111 5870ft 127kts
03-Dec-17 09:43 33.317009 -118.019611 78 6359ft 126kts
03-Dec-17 09:44 33.322022 -117.976817 83 6762ft 130kts
03-Dec-17 09:45 33.323330 -117.933101 96 7163ft 131kts
03-Dec-17 09:46 33.310403 -117.896513 129 7505ft 129kts
03-Dec-17 09:47 33.286827 -117.862329 129 7359ft 141kts
03-Dec-17 09:48 33.264632 -117.829937 129 7497ft 129kts
03-Dec-17 09:49 33.241407 -117.795997 128 7495ft 133kts
03-Dec-17 09:50 33.217252 -117.762482 128 7496ft 133kts
03-Dec-17 09:51 33.194335 -117.730677 128 7497ft 139kts
03-Dec-17 09:52 33.169030 -117.695382 128 7496ft 141kts
03-Dec-17 09:53 33.143399 -117.660159 129 7496ft 141kts
03-Dec-17 09:54 33.117799 -117.624925 129 7496ft 141kts
03-Dec-17 09:55 33.092241 -117.589711 128 7496ft 140kts
03-Dec-17 09:56 33.068843 -117.553610 94 7487ft 138kts
03-Dec-17 09:57 33.076404 -117.509637 53 7500ft 136kts
03-Dec-17 09:58 33.097728 -117.529253 258 7509ft 146kts
03-Dec-17 09:59 33.074201 -117.556447 146 7501ft 141kts
03-Dec-17 10:00 33.072872 -117.513905 77 7503ft 129kts
03-Dec-17 10:01 33.098333 -117.504942 295 6213ft 147kts
03-Dec-17 10:02 33.092162 -117.550868 252 4901ft 138kts
03-Dec-17 10:03 33.058532 -117.567446 184 3486ft 125kts
03-Dec-17 10:04 33.029094 -117.571846 189 3509ft 109kts
03-Dec-17 10:05 33.005891 -117.583266 201 3510ft 108kts
03-Dec-17 10:06 32.978392 -117.597160 201 3510ft 106kts
03-Dec-17 10:07 32.955391 -117.623287 274 3505ft 106kts
03-Dec-17 10:08 32.976933 -117.625202 39 3510ft 100kts
03-Dec-17 10:09 32.986145 -117.602810 104 3509ft 100kts
03-Dec-17 10:10 32.982128 -117.570150 95 3510ft 100kts
03-Dec-17 10:11 32.984712 -117.537090 82 3510ft 100kts
03-Dec-17 10:12 32.988191 -117.501362 82 3511ft 121kts
03-Dec-17 10:13 32.992877 -117.454074 82 3510ft 124kts
03-Dec-17 10:14 32.996292 -117.420149 82 3510ft 124kts
03-Dec-17 10:15 33.000569 -117.379116 81 3512ft 126kts
03-Dec-17 10:16 32.991411 -117.340460 117 3510ft 127kts
03-Dec-17 10:17 32.966299 -117.313729 154 3510ft 127kts
03-Dec-17 10:18 32.934517 -117.295951 154 3510ft 127kts
03-Dec-17 10:19 32.904096 -117.278868 154 3510ft 127kts
03-Dec-17 10:20 32.871634 -117.264825 163 3510ft 127kts
03-Dec-17 10:21 32.838441 -117.251334 138 3509ft 127kts
03-Dec-17 10:22 32.812523 -117.223149 137 3510ft 127kts
03-Dec-17 10:23 32.786896 -117.194966 137 3381ft 127kts
03-Dec-17 10:24 32.761288 -117.171208 190 2207ft 111kts
03-Dec-17 10:25 32.768109 -117.196919 266 1233ft 99kts
03-Dec-17 10:26 32.745894 -117.189636 112 1090ft 101kts
03-Dec-17 10:27 32.736898 -117.162670 108 752ft 75kts
03-Dec-17 10:28 32.728712 -117.169544 283 262ft 84kts
03-Dec-17 10:29 32.733680 -117.188246 25 17ft 0kts
03-Dec-17 10:30 32.733030 -117.182720 106 17ft 25kts
03-Dec-17 10:31 32.732621 -117.179424 293 17ft 0kts

Navigation Log

Ident Type
1. KLAX Airport
2. KSAN Airport